Time;durP1;ratioP1;P1;durP2;ratioP2;P2;SDS_P1;SDS_P2;PMS_P1;PMS_P2;Temp;Humidity;BMP_temperature;BMP_pressure;BME280_temperature;BME280_humidity;BME280_pressure;Samples;Min_cycle;Max_cycle;Signal;HPM_P1;HPM_P2
2022/04/19 00:00:41;;;;;;;3.88;3.25;;;7.80;43.50;;;;;;5072505;28;20238;-76
2022/04/19 00:03:10;;;;;;;5.70;2.92;;;7.80;43.50;;;;;;5072537;28;20222;-81
2022/04/19 00:05:37;;;;;;;4.30;3.67;;;7.80;43.70;;;;;;5073856;28;20268;-73
2022/04/19 00:08:05;;;;;;;5.13;3.20;;;7.80;44.00;;;;;;5066635;28;20195;-78
2022/04/19 00:10:34;;;;;;;3.95;3.13;;;7.80;44.30;;;;;;5069400;28;20223;-79
2022/04/19 00:13:03;;;;;;;4.88;3.72;;;7.70;44.30;;;;;;5066599;28;20232;-74
2022/04/19 00:15:31;;;;;;;4.07;3.55;;;7.70;44.50;;;;;;5058038;28;20238;-75
2022/04/19 00:18:00;;;;;;;3.42;3.13;;;7.60;44.80;;;;;;5057659;28;20203;-73
2022/04/19 00:20:28;;;;;;;4.43;3.75;;;7.60;45.10;;;;;;5056893;28;20280;-75
2022/04/19 00:22:55;;;;;;;4.43;3.67;;;7.60;45.30;;;;;;5058770;28;20301;-74
2022/04/19 00:25:22;;;;;;;6.32;4.15;;;7.50;45.80;;;;;;5057698;28;20221;-77
2022/04/19 00:27:51;;;;;;;5.30;4.38;;;7.50;45.90;;;;;;5059399;28;20214;-73
2022/04/19 00:30:18;;;;;;;4.72;3.65;;;7.50;46.10;;;;;;5060031;28;20596;-73
2022/04/19 00:32:46;;;;;;;4.55;3.78;;;7.50;46.60;;;;;;5058155;28;20210;-75
2022/04/19 00:35:13;;;;;;;4.35;3.30;;;7.40;46.80;;;;;;5056968;28;20747;-77
2022/04/19 00:37:41;;;;;;;5.85;3.47;;;7.30;47.90;;;;;;5057574;28;20686;-73
2022/04/19 00:40:09;;;;;;;4.85;4.28;;;7.20;47.80;;;;;;5059275;28;20706;-77
2022/04/19 00:42:36;;;;;;;4.28;3.50;;;7.20;47.80;;;;;;5061935;28;20233;-77
2022/04/19 00:45:06;;;;;;;5.28;3.75;;;7.10;47.70;;;;;;5061472;28;20261;-77
2022/04/19 00:47:34;;;;;;;6.68;3.42;;;7.10;47.70;;;;;;5066035;28;20237;-76
2022/04/19 00:50:02;;;;;;;4.97;4.07;;;7.10;47.70;;;;;;5076578;28;20266;-76
2022/04/19 00:52:29;;;;;;;4.32;3.50;;;7.00;47.60;;;;;;5078014;28;20209;-74
2022/04/19 00:54:56;;;;;;;4.45;3.42;;;7.00;47.80;;;;;;5072488;28;20234;-77
2022/04/19 00:57:24;;;;;;;4.78;3.53;;;7.00;47.90;;;;;;5064790;28;20233;-74
2022/04/19 00:59:54;;;;;;;4.75;3.55;;;7.00;47.70;;;;;;5062612;28;20217;-74
2022/04/19 01:02:23;;;;;;;3.58;3.28;;;6.90;47.60;;;;;;5067059;28;20218;-75
2022/04/19 01:04:50;;;;;;;4.68;3.28;;;6.90;47.60;;;;;;5068364;28;20250;-74
2022/04/19 01:07:18;;;;;;;3.75;3.20;;;6.90;48.40;;;;;;5070449;28;20210;-75
2022/04/19 01:09:46;;;;;;;5.20;3.60;;;6.90;48.30;;;;;;5067774;28;20210;-75
2022/04/19 01:15:02;;;;;;;4.45;3.25;;;6.80;48.90;;;;;;5058211;28;20342;-74
2022/04/19 01:17:31;;;;;;;4.57;3.63;;;6.70;49.40;;;;;;5073255;28;20234;-76
2022/04/19 01:19:57;;;;;;;3.70;3.40;;;6.70;49.60;;;;;;5074833;28;20226;-76
2022/04/19 01:22:26;;;;;;;4.57;3.92;;;6.70;49.60;;;;;;5061000;28;20278;-75
2022/04/19 01:24:52;;;;;;;3.80;3.40;;;6.70;50.00;;;;;;5056462;28;20689;-75
2022/04/19 01:27:19;;;;;;;5.22;3.70;;;6.60;50.40;;;;;;5056041;28;20252;-76
2022/04/19 01:29:47;;;;;;;7.57;3.70;;;6.50;51.10;;;;;;5056027;28;20678;-76
2022/04/19 01:32:14;;;;;;;4.53;4.13;;;6.40;52.60;;;;;;5056482;28;20212;-73
2022/04/19 01:34:40;;;;;;;4.13;3.70;;;6.40;52.20;;;;;;5060640;28;20533;-75
2022/04/19 01:37:09;;;;;;;5.03;4.25;;;6.30;52.50;;;;;;5064563;28;20274;-76
2022/04/19 01:42:22;;;;;;;4.90;4.40;;;6.20;53.30;;;;;;5056044;28;20331;-74
2022/04/19 01:44:49;;;;;;;6.28;4.60;;;6.10;53.80;;;;;;5055689;28;20761;-73
2022/04/19 01:47:16;;;;;;;4.75;3.85;;;6.10;54.10;;;;;;5056476;28;20625;-74
2022/04/19 01:49:49;;;;;;;7.13;4.30;;;6.00;54.70;;;;;;5055095;28;20688;-74
2022/04/19 01:52:16;;;;;;;4.95;4.45;;;6.00;55.40;;;;;;5055943;28;20210;-75
2022/04/19 01:54:45;;;;;;;6.20;4.25;;;6.00;56.20;;;;;;5055552;28;20210;-74
2022/04/19 01:57:12;;;;;;;3.90;3.50;;;6.00;56.20;;;;;;5055783;28;20217;-73
2022/04/19 01:59:38;;;;;;;3.63;3.33;;;6.00;56.20;;;;;;5054884;28;20713;-73
2022/04/19 02:02:05;;;;;;;5.28;4.20;;;6.00;56.20;;;;;;5054756;28;20237;-74
2022/04/19 02:04:32;;;;;;;4.80;4.05;;;5.90;56.10;;;;;;5054608;28;20211;-74
2022/04/19 02:06:59;;;;;;;5.47;3.85;;;5.90;56.10;;;;;;5054503;28;20277;-74
2022/04/19 02:09:26;;;;;;;4.95;4.18;;;5.80;56.30;;;;;;5054575;28;20301;-74
2022/04/19 02:11:54;;;;;;;7.80;4.78;;;5.80;57.20;;;;;;5061241;28;20585;-75
2022/04/19 02:14:23;;;;;;;5.10;4.45;;;5.80;58.00;;;;;;5054707;28;20210;-75
2022/04/19 02:16:52;;;;;;;5.50;4.53;;;5.70;58.80;;;;;;5054582;28;20259;-77
2022/04/19 02:19:20;;;;;;;4.68;3.72;;;5.70;58.50;;;;;;5054251;28;20217;-77
2022/04/19 02:21:46;;;;;;;8.35;4.10;;;5.60;58.60;;;;;;5054979;28;20231;-76
2022/04/19 02:24:13;;;;;;;6.53;4.40;;;5.60;59.10;;;;;;5058018;28;20207;-75
2022/04/19 02:26:40;;;;;;;5.35;4.13;;;5.60;59.70;;;;;;5076693;28;20263;-74
2022/04/19 02:29:09;;;;;;;5.88;3.78;;;5.50;60.10;;;;;;5066586;28;20202;-73
2022/04/19 02:31:35;;;;;;;5.00;3.78;;;5.50;60.60;;;;;;5077475;28;20221;-73
2022/04/19 02:34:03;;;;;;;5.85;4.20;;;5.60;60.60;;;;;;5062691;28;20245;-74
2022/04/19 02:36:30;;;;;;;4.90;4.13;;;5.60;60.80;;;;;;5054198;28;20301;-74
2022/04/19 02:38:59;;;;;;;4.65;3.75;;;5.60;60.60;;;;;;5053863;28;20301;-75
2022/04/19 02:41:26;;;;;;;4.90;4.40;;;5.60;60.50;;;;;;5053393;28;20321;-74
2022/04/19 02:43:52;;;;;;;10.27;4.07;;;5.60;60.50;;;;;;5053571;28;20585;-74
2022/04/19 02:46:21;;;;;;;4.88;4.38;;;5.50;61.00;;;;;;5053501;28;20211;-74
2022/04/19 02:48:49;;;;;;;4.43;4.03;;;5.50;61.50;;;;;;5053433;28;20209;-74
2022/04/19 02:51:18;;;;;;;5.47;3.53;;;5.50;61.80;;;;;;5053586;28;20606;-74
2022/04/19 02:53:44;;;;;;;4.00;3.60;;;5.40;61.30;;;;;;5053370;28;20210;-75
2022/04/19 02:56:11;;;;;;;6.35;3.65;;;5.40;61.30;;;;;;5054363;28;20298;-74
2022/04/19 02:58:39;;;;;;;4.15;3.58;;;5.40;61.60;;;;;;5053828;28;20234;-74
2022/04/19 03:01:06;;;;;;;6.43;4.13;;;5.40;61.40;;;;;;5054527;28;20233;-74
2022/04/19 03:03:34;;;;;;;5.55;3.45;;;5.40;61.30;;;;;;5054787;28;20568;-74
2022/04/19 03:06:01;;;;;;;4.47;3.95;;;5.40;61.60;;;;;;5054350;28;20211;-74
2022/04/19 03:08:28;;;;;;;4.13;3.60;;;5.30;61.40;;;;;;5055649;28;20634;-74
2022/04/19 03:10:56;;;;;;;7.30;4.05;;;5.30;61.70;;;;;;5055880;28;20219;-73
2022/04/19 03:13:23;;;;;;;4.93;3.75;;;5.40;61.30;;;;;;5056622;28;20210;-74
2022/04/19 03:15:49;;;;;;;6.90;3.70;;;5.40;61.00;;;;;;5060824;28;20214;-74
2022/04/19 03:18:16;;;;;;;4.10;3.55;;;5.40;60.80;;;;;;5062256;28;20214;-75
2022/04/19 03:20:46;;;;;;;5.40;3.80;;;5.40;60.90;;;;;;5061349;28;20236;-76
2022/04/19 03:28:41;;;;;;;4.25;3.67;;;5.30;62.00;;;;;;5053766;28;20205;-74
2022/04/19 03:31:08;;;;;;;7.25;3.70;;;5.20;62.30;;;;;;5053862;28;20624;-74
2022/04/19 03:33:48;;;;;;;8.32;4.50;;;5.20;62.60;;;;;;5056970;28;20311;-77
2022/04/19 03:36:16;;;;;;;4.05;3.65;;;5.20;63.20;;;;;;5056746;28;20195;-74
2022/04/19 03:38:43;;;;;;;4.95;4.07;;;5.10;63.50;;;;;;5056384;28;20214;-74
2022/04/19 03:41:10;;;;;;;4.55;3.58;;;5.00;64.40;;;;;;5058699;28;20276;-73
2022/04/19 03:43:38;;;;;;;4.45;4.03;;;5.00;64.30;;;;;;5058696;28;20293;-73
2022/04/19 03:46:05;;;;;;;5.47;4.78;;;5.00;64.30;;;;;;5058156;28;20210;-74
2022/04/19 03:48:32;;;;;;;5.65;5.07;;;4.90;65.10;;;;;;5058919;28;20210;-74
2022/04/19 03:50:59;;;;;;;5.10;4.60;;;4.80;65.90;;;;;;5057924;28;20733;-74
2022/04/19 03:53:27;;;;;;;6.13;4.82;;;4.70;66.60;;;;;;5059556;28;20228;-74
2022/04/19 03:55:54;;;;;;;4.82;4.32;;;4.70;66.90;;;;;;5063957;28;20256;-76
2022/04/19 03:58:21;;;;;;;5.95;4.78;;;4.70;66.70;;;;;;5066593;28;20241;-77
2022/04/19 04:00:49;;;;;;;6.03;4.75;;;4.70;66.90;;;;;;5065257;28;20222;-77
2022/04/19 04:03:16;;;;;;;5.80;5.28;;;4.70;66.60;;;;;;5063875;28;20203;-76
2022/04/19 04:05:43;;;;;;;5.35;4.85;;;4.70;66.60;;;;;;5059981;28;20203;-77
2022/04/19 04:08:10;;;;;;;7.00;5.15;;;4.70;66.60;;;;;;5059482;28;20670;-73
2022/04/19 04:10:38;;;;;;;7.68;4.45;;;4.70;66.20;;;;;;5059308;28;20258;-73
2022/04/19 04:13:05;;;;;;;6.50;4.70;;;4.70;66.00;;;;;;5058438;28;20214;-74
2022/04/19 04:15:32;;;;;;;5.05;4.55;;;4.70;65.80;;;;;;5059059;28;20297;-76
2022/04/19 04:17:59;;;;;;;6.43;4.70;;;4.70;65.90;;;;;;5061763;28;20244;-74
2022/04/19 04:20:26;;;;;;;4.63;4.20;;;4.70;66.40;;;;;;5067234;28;20230;-73
2022/04/19 04:22:53;;;;;;;4.60;3.83;;;4.70;66.60;;;;;;5070679;28;20240;-75
2022/04/19 04:25:20;;;;;;;5.10;4.50;;;4.60;67.20;;;;;;5070572;28;20207;-73
2022/04/19 04:27:48;;;;;;;6.85;4.75;;;4.60;67.00;;;;;;5067923;28;20700;-74
2022/04/19 04:30:15;;;;;;;5.22;4.13;;;4.60;67.40;;;;;;5059963;28;20230;-75
2022/04/19 04:32:42;;;;;;;8.80;4.80;;;4.50;67.80;;;;;;5060921;28;20238;-75
2022/04/19 04:35:10;;;;;;;5.18;4.68;;;4.50;68.10;;;;;;5065376;28;20206;-74
2022/04/19 04:37:37;;;;;;;6.13;4.60;;;4.40;68.90;;;;;;5058988;28;20759;-73
2022/04/19 04:40:04;;;;;;;5.07;4.60;;;4.40;70.40;;;;;;5056078;28;20230;-76
2022/04/19 04:42:31;;;;;;;11.48;5.72;;;4.40;70.80;;;;;;5056688;28;20226;-74
2022/04/19 04:45:06;;;;;;;6.80;4.90;;;4.40;72.00;;;;;;5065411;28;20206;-77
2022/04/19 04:50:18;;;;;;;7.10;5.65;;;4.30;72.40;;;;;;5071519;28;20232;-77
2022/04/19 04:52:45;;;;;;;6.97;5.25;;;4.30;72.40;;;;;;5077929;28;20203;-80
2022/04/19 04:55:14;;;;;;;7.75;5.32;;;4.30;72.40;;;;;;5068829;28;20256;-74
2022/04/19 04:57:41;;;;;;;8.07;5.32;;;4.40;72.50;;;;;;5064237;28;20207;-74
2022/04/19 05:00:13;;;;;;;5.95;4.97;;;4.40;72.50;;;;;;5057930;28;20244;-74
2022/04/19 05:02:40;;;;;;;6.07;5.18;;;4.50;72.60;;;;;;5059638;28;20276;-75
2022/04/19 05:05:07;;;;;;;9.10;5.47;;;4.50;72.10;;;;;;5060497;28;20214;-73
2022/04/19 05:07:43;;;;;;;6.22;4.95;;;4.60;71.90;;;;;;5063846;28;20214;-74
2022/04/19 05:10:11;;;;;;;8.15;5.10;;;4.70;71.90;;;;;;5056556;28;20226;-76
2022/04/19 05:12:37;;;;;;;5.15;4.20;;;4.80;72.40;;;;;;5056334;28;20700;-77
2022/04/19 05:15:05;;;;;;;5.60;5.00;;;5.40;72.00;;;;;;5056826;28;20217;-77
2022/04/19 05:17:34;;;;;;;6.38;3.95;;;6.00;65.10;;;;;;5056469;28;20785;-76
2022/04/19 05:20:01;;;;;;;4.85;4.35;;;6.30;59.30;;;;;;5055937;28;20227;-77
2022/04/19 05:22:28;;;;;;;5.35;4.28;;;6.60;56.70;;;;;;5056695;28;20218;-77
2022/04/19 05:24:55;;;;;;;6.20;4.40;;;6.60;55.50;;;;;;5060560;28;20210;-77
2022/04/19 05:27:22;;;;;;;6.45;4.45;;;6.40;56.60;;;;;;5067604;28;20301;-77
2022/04/19 05:29:49;;;;;;;6.28;4.70;;;6.10;56.30;;;;;;5070454;28;20321;-76
2022/04/19 05:32:16;;;;;;;4.32;3.95;;;6.00;56.90;;;;;;5071104;28;20207;-76
2022/04/19 05:34:44;;;;;;;4.55;4.13;;;6.00;57.10;;;;;;5073274;28;20240;-74
2022/04/19 05:37:11;;;;;;;4.85;3.80;;;6.20;56.40;;;;;;5077175;28;20202;-76
2022/04/19 05:39:38;;;;;;;6.70;3.70;;;6.00;56.20;;;;;;5064915;28;20230;-77
2022/04/19 05:42:05;;;;;;;5.57;3.90;;;6.00;56.50;;;;;;5058773;28;20221;-79
2022/04/19 05:44:32;;;;;;;4.78;3.65;;;5.90;57.50;;;;;;5065597;28;20297;-75
2022/04/19 05:47:00;;;;;;;4.97;3.90;;;6.30;56.50;;;;;;5067760;28;20217;-77
2022/04/19 05:49:27;;;;;;;3.95;3.20;;;6.80;54.40;;;;;;5063192;28;20203;-77
2022/04/19 05:51:55;;;;;;;4.10;3.10;;;7.50;52.00;;;;;;5057513;28;20236;-77
2022/04/19 05:54:22;;;;;;;4.70;3.13;;;8.40;48.90;;;;;;5056554;28;20203;-77
2022/04/19 05:56:49;;;;;;;3.35;2.95;;;9.20;45.40;;;;;;5054870;28;20206;-77
2022/04/19 05:59:16;;;;;;;7.97;3.47;;;9.70;42.80;;;;;;5055899;28;20202;-76
2022/04/19 06:07:12;;;;;;;3.05;2.75;;;9.40;40.60;;;;;;5057235;28;20679;-76
2022/04/19 06:09:39;;;;;;;6.95;3.30;;;9.30;39.90;;;;;;5055869;28;20301;-76
2022/04/19 06:12:07;;;;;;;3.05;2.75;;;9.40;40.00;;;;;;5055640;28;20245;-76
2022/04/19 06:14:35;;;;;;;6.68;3.20;;;9.90;40.40;;;;;;5055085;28;20233;-77
2022/04/19 06:17:02;;;;;;;3.83;3.05;;;10.00;38.20;;;;;;5056246;28;20285;-77
2022/04/19 06:19:30;;;;;;;3.80;3.40;;;10.00;38.60;;;;;;5055116;28;20202;-76
2022/04/19 06:21:57;;;;;;;4.47;3.60;;;10.10;38.10;;;;;;5055243;28;20666;-76
2022/04/19 06:24:26;;;;;;;3.10;2.80;;;9.20;39.80;;;;;;5056557;28;20211;-77
2022/04/19 06:26:55;;;;;;;4.45;2.92;;;9.20;40.40;;;;;;5056946;28;20285;-77
2022/04/19 06:29:22;;;;;;;3.17;2.85;;;9.00;41.30;;;;;;5060730;28;20618;-76
2022/04/19 06:31:49;;;;;;;3.33;3.03;;;8.80;41.70;;;;;;5061855;28;20219;-77
2022/04/19 06:34:16;;;;;;;5.57;3.30;;;8.70;42.30;;;;;;5055417;28;20297;-77
2022/04/19 06:36:43;;;;;;;7.18;3.20;;;8.50;42.70;;;;;;5057866;28;20237;-77
2022/04/19 06:39:10;;;;;;;4.72;3.50;;;8.40;42.80;;;;;;5061313;28;20217;-77
2022/04/19 06:41:39;;;;;;;3.17;2.83;;;8.60;42.40;;;;;;5061380;28;20230;-77
2022/04/19 06:44:06;;;;;;;3.85;2.60;;;8.90;42.00;;;;;;5057117;28;20649;-76
2022/04/19 06:46:34;;;;;;;3.60;3.05;;;8.90;41.50;;;;;;5056906;28;20286;-76
2022/04/19 06:49:01;;;;;;;7.65;3.25;;;8.70;41.00;;;;;;5055916;28;20206;-76
2022/04/19 06:51:29;;;;;;;6.43;3.05;;;8.50;41.50;;;;;;5055381;28;20230;-76
2022/04/19 06:53:57;;;;;;;3.30;3.00;;;8.60;41.80;;;;;;5054659;28;20216;-76
2022/04/19 06:56:24;;;;;;;3.45;2.80;;;8.80;41.70;;;;;;5056100;28;20248;-77
2022/04/19 06:58:54;;;;;;;3.90;2.53;;;9.00;42.00;;;;;;5074195;28;20198;-74
2022/04/19 07:01:23;;;;;;;6.53;2.78;;;9.10;39.70;;;;;;5072473;28;20214;-75
2022/04/19 07:03:50;;;;;;;3.55;3.10;;;9.20;39.80;;;;;;5074425;28;20230;-75
2022/04/19 07:06:17;;;;;;;2.75;2.53;;;9.20;39.80;;;;;;5073545;28;20202;-76
2022/04/19 07:08:44;;;;;;;3.67;2.90;;;9.30;39.90;;;;;;5075792;28;20238;-74
2022/04/19 07:11:12;;;;;;;2.70;2.50;;;9.40;40.00;;;;;;5075500;28;20238;-74
2022/04/19 07:13:39;;;;;;;3.20;2.80;;;9.50;38.90;;;;;;5078631;28;20233;-77
2022/04/19 07:16:07;;;;;;;3.28;2.53;;;9.70;38.90;;;;;;5079231;28;20572;-73
2022/04/19 07:18:34;;;;;;;3.55;2.80;;;9.90;37.90;;;;;;5078036;28;20261;-75
2022/04/19 07:26:40;;;;;;;2.83;2.60;;;10.40;35.70;;;;;;5074176;28;20201;-76
2022/04/19 07:29:10;;;;;;;3.03;2.50;;;10.60;35.10;;;;;;5068406;28;20210;-75
2022/04/19 07:31:39;;;;;;;3.63;2.83;;;10.60;34.70;;;;;;5068204;28;20284;-77
2022/04/19 07:34:06;;;;;;;3.30;2.70;;;10.60;35.20;;;;;;5067127;28;20698;-76
2022/04/19 07:36:35;;;;;;;2.92;2.72;;;10.70;35.10;;;;;;5067083;28;20206;-77
2022/04/19 07:39:03;;;;;;;3.45;3.00;;;10.70;35.00;;;;;;5069787;28;20206;-76
2022/04/19 07:41:31;;;;;;;3.00;2.30;;;11.00;34.30;;;;;;5073934;28;20267;-77
2022/04/19 07:43:57;;;;;;;3.35;2.60;;;11.20;34.00;;;;;;5074391;28;20276;-77
2022/04/19 07:46:24;;;;;;;4.18;3.05;;;11.30;34.30;;;;;;5073615;28;20210;-75
2022/04/19 07:48:53;;;;;;;2.78;2.58;;;11.40;33.30;;;;;;5078481;28;20270;-75
2022/04/19 07:51:20;;;;;;;3.13;2.65;;;11.60;33.20;;;;;;5077892;28;20223;-73
2022/04/19 07:53:47;;;;;;;3.42;2.55;;;11.80;32.60;;;;;;5077677;28;20207;-76
2022/04/19 07:56:14;;;;;;;3.25;2.78;;;11.90;31.20;;;;;;5066386;28;20302;-77
2022/04/19 07:58:42;;;;;;;2.78;2.50;;;11.80;31.10;;;;;;5065444;28;20678;-77
2022/04/19 08:01:10;;;;;;;4.53;2.95;;;11.80;31.10;;;;;;5069831;28;20251;-76
2022/04/19 08:03:37;;;;;;;3.80;2.83;;;12.10;31.40;;;;;;5065956;28;20227;-77
2022/04/19 08:06:06;;;;;;;3.05;2.75;;;12.30;31.10;;;;;;5066238;28;20289;-77
2022/04/19 08:08:33;;;;;;;5.78;2.40;;;12.50;30.10;;;;;;5066336;28;20202;-76
2022/04/19 08:11:00;;;;;;;3.45;3.10;;;12.80;29.80;;;;;;5064020;28;20585;-77
2022/04/19 08:13:27;;;;;;;3.10;2.72;;;12.90;29.70;;;;;;5060842;28;20213;-77
2022/04/19 08:15:54;;;;;;;3.63;3.08;;;13.00;29.30;;;;;;5060555;28;20233;-76
2022/04/19 08:18:21;;;;;;;3.88;2.95;;;13.30;29.00;;;;;;5061443;28;20665;-76
2022/04/19 08:20:48;;;;;;;3.00;2.80;;;13.40;28.80;;;;;;5060856;28;20238;-77
2022/04/19 08:23:17;;;;;;;3.23;2.30;;;13.50;29.00;;;;;;5061768;28;20489;-77
2022/04/19 08:25:44;;;;;;;5.95;3.42;;;13.50;28.80;;;;;;5058099;28;20511;-77
2022/04/19 08:28:11;;;;;;;3.75;2.95;;;13.70;28.40;;;;;;5058204;28;20206;-77
2022/04/19 08:30:38;;;;;;;7.95;3.00;;;13.80;27.50;;;;;;5057027;28;20222;-76
2022/04/19 08:33:05;;;;;;;3.90;3.13;;;13.90;27.40;;;;;;5057372;28;20208;-77
2022/04/19 08:35:32;;;;;;;4.47;2.90;;;13.90;27.40;;;;;;5058925;28;20419;-77
2022/04/19 08:37:59;;;;;;;3.90;3.30;;;14.10;27.10;;;;;;5057946;28;20210;-76
2022/04/19 08:40:27;;;;;;;6.97;3.65;;;14.20;26.10;;;;;;5057428;28;20858;-74
2022/04/19 08:42:56;;;;;;;7.47;3.70;;;14.20;26.00;;;;;;5058913;28;20226;-76
2022/04/19 08:45:23;;;;;;;5.93;3.40;;;13.80;25.50;;;;;;5057707;28;20473;-76
2022/04/19 08:47:51;;;;;;;5.10;3.60;;;14.00;25.50;;;;;;5058084;28;20465;-76
2022/04/19 08:50:20;;;;;;;7.37;3.63;;;14.30;25.30;;;;;;5057436;28;20455;-76
2022/04/19 08:57:29;;;;;;;5.67;3.33;;;14.50;24.90;;;;;;5057488;28;20424;-77
2022/04/19 08:58:21;;;;;;;3.37;3.07;;;14.40;24.10;;;;;;5057524;28;20560;-76
2022/04/19 09:00:47;;;;;;;6.40;3.77;;;14.20;24.70;;;;;;5057449;28;20496;-76
2022/04/19 09:03:15;;;;;;;6.43;4.50;;;14.30;24.80;;;;;;5057169;28;20460;-76
2022/04/19 09:05:50;;;;;;;3.93;3.50;;;14.30;24.80;;;;;;5057195;28;21060;-76
2022/04/19 09:08:18;;;;;;;4.33;3.93;;;14.40;25.20;;;;;;5060928;28;20506;-77
2022/04/19 09:10:46;;;;;;;6.77;4.10;;;14.80;25.10;;;;;;5059980;28;20507;-76
2022/04/19 09:13:19;;;;;;;4.43;4.00;;;15.00;25.30;;;;;;5056928;28;20547;-77
2022/04/19 09:15:46;;;;;;;4.77;3.70;;;15.20;25.40;;;;;;5059295;28;20453;-78
2022/04/19 09:18:16;;;;;;;4.27;3.50;;;15.40;24.60;;;;;;5057491;28;20457;-76
2022/04/19 09:20:43;;;;;;;5.00;3.83;;;15.40;24.50;;;;;;5059577;28;20815;-76
2022/04/19 09:23:11;;;;;;;5.50;3.80;;;15.60;24.50;;;;;;5058986;28;20492;-76
2022/04/19 09:25:39;;;;;;;7.33;3.70;;;15.50;23.90;;;;;;5062870;28;20556;-76
2022/04/19 09:28:17;;;;;;;13.20;4.43;;;15.40;25.00;;;;;;5063618;28;20872;-75
2022/04/19 09:30:45;;;;;;;3.70;3.40;;;15.50;23.70;;;;;;5062785;28;20476;-76
2022/04/19 09:33:14;;;;;;;7.80;3.90;;;15.50;23.10;;;;;;5065556;28;20547;-75
2022/04/19 09:35:44;;;;;;;5.83;3.97;;;15.60;22.00;;;;;;5056702;28;20523;-76
2022/04/19 09:38:11;;;;;;;6.30;4.27;;;15.80;20.80;;;;;;5057180;28;20460;-77
2022/04/19 09:40:41;;;;;;;6.20;4.30;;;15.70;19.20;;;;;;5055617;28;20477;-77
2022/04/19 09:43:13;;;;;;;4.80;4.00;;;15.70;20.00;;;;;;5056415;28;20990;-78
2022/04/19 09:45:54;;;;;;;4.00;3.60;;;15.60;20.50;;;;;;5057177;28;20453;-78
2022/04/19 09:48:23;;;;;;;5.10;4.40;;;16.00;20.20;;;;;;5061388;28;20453;-76
2022/04/19 09:50:59;;;;;;;5.30;4.23;;;15.90;20.40;;;;;;5067250;28;20485;-78
2022/04/19 09:53:27;;;;;;;4.70;3.83;;;16.00;19.60;;;;;;5069364;28;20445;-77
2022/04/19 09:55:56;;;;;;;4.57;4.17;;;16.20;19.60;;;;;;5068904;28;20480;-75
2022/04/19 09:58:24;;;;;;;4.87;4.40;;;16.40;20.60;;;;;;5073323;28;20422;-76
2022/04/19 10:00:53;;;;;;;3.70;3.40;;;16.40;20.30;;;;;;5065398;28;20475;-75
2022/04/19 10:08:53;;;;;;;4.67;3.10;;;16.30;18.50;;;;;;5044407;28;20766;-76
2022/04/19 10:11:21;;;;;;;3.70;3.30;;;16.30;18.00;;;;;;5056018;28;20514;-77
2022/04/19 10:13:48;;;;;;;4.90;3.27;;;16.40;18.70;;;;;;5055491;28;20953;-76
2022/04/19 10:16:16;;;;;;;5.00;2.97;;;16.60;18.20;;;;;;5054361;28;20424;-76
2022/04/19 10:18:45;;;;;;;4.73;3.60;;;16.70;18.30;;;;;;5055041;28;20856;-76
2022/04/19 10:21:16;;;;;;;5.00;4.20;;;16.90;18.30;;;;;;5054667;28;20480;-77
2022/04/19 10:23:44;;;;;;;4.50;3.50;;;17.00;17.20;;;;;;5056373;28;20463;-78
2022/04/19 10:26:23;;;;;;;5.13;3.77;;;17.20;17.20;;;;;;5054397;28;20436;-77
2022/04/19 10:28:52;;;;;;;5.07;3.63;;;16.90;16.40;;;;;;5054303;28;20444;-76
2022/04/19 10:31:30;;;;;;;4.60;3.70;;;17.10;17.30;;;;;;5054215;28;20473;-76
2022/04/19 10:34:02;;;;;;;4.07;3.30;;;17.10;18.60;;;;;;5054727;28;20449;-77
2022/04/19 10:36:36;;;;;;;4.73;3.70;;;16.90;18.40;;;;;;5054224;28;20460;-76
2022/04/19 10:39:24;;;;;;;3.90;3.47;;;16.90;18.40;;;;;;5054700;28;20514;-75
2022/04/19 10:41:54;;;;;;;4.43;4.03;;;16.80;18.40;;;;;;5055778;28;20549;-77
2022/04/19 10:44:23;;;;;;;4.63;3.60;;;16.60;18.20;;;;;;5065139;28;20583;-75
2022/04/19 10:47:11;;;;;;;5.13;3.57;;;16.70;18.30;;;;;;5069694;28;20439;-76
2022/04/19 10:49:58;;;;;;;6.03;3.60;;;17.20;18.70;;;;;;5058836;28;20465;-76
2022/04/19 10:52:51;;;;;;;4.17;3.33;;;17.30;17.70;;;;;;5054270;28;20455;-75
2022/04/19 10:55:29;;;;;;;3.80;2.80;;;17.60;17.50;;;;;;5055246;28;20499;-74
2022/04/19 10:58:12;;;;;;;5.17;2.77;;;17.80;16.60;;;;;;5054703;28;20419;-75
2022/04/19 11:01:00;;;;;;;5.50;3.20;;;17.90;16.00;;;;;;5059705;28;20481;-75
2022/04/19 11:03:50;;;;;;;3.40;3.10;;;17.90;16.50;;;;;;5059019;28;20484;-74
2022/04/19 11:06:37;;;;;;;3.50;3.20;;;17.90;15.40;;;;;;5055976;28;20467;-74
2022/04/19 11:09:19;;;;;;;4.73;3.47;;;17.80;16.10;;;;;;5061897;28;20445;-77
2022/04/19 11:11:48;;;;;;;3.80;3.33;;;18.10;15.60;;;;;;5059689;28;20520;-75
2022/04/19 11:14:37;;;;;;;4.10;2.80;;;18.20;16.30;;;;;;5054958;28;20445;-73
2022/04/19 11:17:19;;;;;;;5.40;3.17;;;18.00;15.40;;;;;;5054025;28;20487;-74
2022/04/19 11:19:54;;;;;;;3.80;3.23;;;18.20;15.50;;;;;;5050961;28;20461;-74
2022/04/19 11:22:52;;;;;;;4.47;3.40;;;18.00;15.00;;;;;;5053150;28;20446;-74
2022/04/19 11:25:39;;;;;;;4.77;2.70;;;17.50;15.00;;;;;;5052804;28;20449;-75
2022/04/19 11:28:26;;;;;;;3.77;3.07;;;17.70;15.50;;;;;;5053146;28;20456;-74
2022/04/19 11:31:14;;;;;;;3.90;2.93;;;17.90;15.70;;;;;;5053092;28;20808;-75
2022/04/19 11:33:41;;;;;;;4.87;3.33;;;18.10;15.70;;;;;;5053045;28;20441;-73
2022/04/19 11:36:13;;;;;;;3.00;2.80;;;18.20;14.60;;;;;;5054436;28;20463;-74
2022/04/19 11:38:45;;;;;;;3.67;2.97;;;18.10;14.20;;;;;;5053201;28;20453;-74
2022/04/19 11:46:58;;;;;;;3.70;2.80;;;18.60;14.20;;;;;;5031039;28;20408;-75
2022/04/19 11:49:26;;;;;;;7.60;3.43;;;18.80;13.90;;;;;;5030951;28;20457;-74
2022/04/19 11:51:56;;;;;;;3.97;3.17;;;18.90;14.10;;;;;;5041076;28;20480;-74
2022/04/19 11:54:25;;;;;;;5.23;3.47;;;18.10;14.60;;;;;;5053551;28;20972;-75
2022/04/19 11:56:52;;;;;;;3.40;2.77;;;17.90;14.70;;;;;;5054209;28;20484;-74
2022/04/19 11:59:24;;;;;;;3.77;3.13;;;18.00;15.20;;;;;;5057677;28;20768;-73
2022/04/19 12:01:52;;;;;;;3.43;3.10;;;18.50;14.50;;;;;;5061480;28;20465;-74
2022/04/19 12:04:19;;;;;;;4.57;3.47;;;18.60;14.20;;;;;;5063530;28;20560;-74
2022/04/19 12:06:47;;;;;;;5.10;3.40;;;18.30;14.80;;;;;;5065562;28;20463;-74
2022/04/19 12:09:17;;;;;;;4.07;2.97;;;18.10;15.50;;;;;;5065882;28;20420;-76
2022/04/19 12:11:46;;;;;;;3.10;2.80;;;18.50;14.40;;;;;;5062273;28;20568;-75
2022/04/19 12:14:24;;;;;;;2.97;2.67;;;18.70;12.90;;;;;;5064208;28;20457;-74
2022/04/19 12:16:57;;;;;;;3.93;2.70;;;18.50;13.00;;;;;;5057186;28;20423;-74
2022/04/19 12:19:34;;;;;;;3.40;3.10;;;18.40;12.30;;;;;;5056922;28;20438;-74
2022/04/19 12:22:01;;;;;;;2.80;2.60;;;18.60;11.90;;;;;;5058869;28;20472;-73
2022/04/19 12:24:31;;;;;;;3.00;2.70;;;18.50;11.90;;;;;;5060520;28;20484;-75
2022/04/19 12:27:06;;;;;;;2.77;2.53;;;18.70;11.30;;;;;;5061134;28;20484;-73
2022/04/19 12:29:34;;;;;;;5.07;2.60;;;18.90;11.40;;;;;;5058109;28;20915;-74
2022/04/19 12:32:02;;;;;;;2.87;2.60;;;19.10;11.60;;;;;;5059253;28;20480;-74
2022/04/19 12:34:34;;;;;;;5.80;3.23;;;19.10;11.50;;;;;;5059542;28;20939;-74
2022/04/19 12:37:07;;;;;;;3.60;2.73;;;18.70;11.20;;;;;;5059317;28;20998;-75
2022/04/19 12:39:35;;;;;;;2.87;2.60;;;18.80;11.30;;;;;;5067551;28;20476;-75
2022/04/19 12:42:07;;;;;;;3.03;2.60;;;19.20;11.60;;;;;;5065081;28;20559;-73
2022/04/19 12:44:35;;;;;;;3.30;3.00;;;19.10;10.10;;;;;;5058948;28;20477;-73
2022/04/19 12:47:09;;;;;;;3.97;3.23;;;19.20;10.40;;;;;;5056848;28;20563;-75
2022/04/19 12:49:43;;;;;;;3.63;3.30;;;19.10;10.50;;;;;;5055845;28;20462;-74
2022/04/19 12:52:10;;;;;;;3.90;3.40;;;19.10;10.60;;;;;;5055588;28;20940;-74
2022/04/19 12:54:40;;;;;;;4.90;3.13;;;19.20;10.00;;;;;;5056002;28;20424;-75
2022/04/19 13:04:41;;;;;;;3.10;2.80;;;19.00;8.80;;;;;;5057694;28;20586;-74
2022/04/19 13:12:38;;;;;;;3.57;3.27;;;19.30;9.70;;;;;;5056384;28;20515;-73
2022/04/19 13:15:06;;;;;;;3.73;3.07;;;19.40;9.30;;;;;;5056545;28;20794;-74
2022/04/19 13:17:34;;;;;;;7.20;3.50;;;19.50;9.50;;;;;;5056839;28;20495;-74
2022/04/19 13:20:02;;;;;;;5.50;3.17;;;19.60;8.90;;;;;;5056872;28;20531;-75
2022/04/19 13:22:29;;;;;;;3.30;3.00;;;19.70;8.80;;;;;;5062124;28;20435;-76
2022/04/19 13:24:58;;;;;;;3.23;2.93;;;19.70;8.90;;;;;;5062841;28;20464;-75
2022/04/19 13:27:26;;;;;;;4.77;3.50;;;19.80;9.80;;;;;;5065639;28;20438;-75
2022/04/19 13:29:53;;;;;;;5.47;3.40;;;19.90;10.80;;;;;;5063825;28;20488;-75
2022/04/19 13:32:21;;;;;;;7.13;3.80;;;20.00;11.20;;;;;;5063765;28;20432;-75
2022/04/19 13:34:48;;;;;;;4.93;3.20;;;20.00;9.60;;;;;;5062220;28;20427;-76
2022/04/19 13:37:16;;;;;;;4.03;3.53;;;20.00;9.20;;;;;;5060741;28;20464;-77
2022/04/19 13:39:43;;;;;;;4.33;3.93;;;19.90;10.10;;;;;;5062987;28;20455;-75
2022/04/19 13:42:11;;;;;;;4.23;3.70;;;19.20;10.80;;;;;;5061880;28;20442;-76
2022/04/19 13:44:38;;;;;;;4.77;4.10;;;19.20;10.50;;;;;;5065764;28;20514;-74
2022/04/19 13:47:06;;;;;;;6.47;3.83;;;19.50;10.60;;;;;;5073945;28;20455;-74
2022/04/19 13:49:33;;;;;;;4.70;3.90;;;19.30;11.00;;;;;;5075776;28;20460;-76
2022/04/19 13:52:00;;;;;;;5.53;4.53;;;19.40;10.80;;;;;;5071662;28;20462;-74
2022/04/19 13:54:27;;;;;;;6.37;4.27;;;19.50;11.00;;;;;;5060677;28;20419;-74